createdAt,value
2017-06-28T00:00:14.293Z,7.65
2017-06-28T00:02:40.959Z,7.03
2017-06-28T00:05:07.622Z,9.00
2017-06-28T00:07:34.292Z,9.55
2017-06-28T00:10:00.956Z,7.78
2017-06-28T00:12:27.616Z,8.05
2017-06-28T00:14:54.283Z,7.53
2017-06-28T00:17:20.944Z,7.70
2017-06-28T00:19:47.611Z,8.02
2017-06-28T00:22:14.284Z,7.80
2017-06-28T00:24:40.972Z,7.95
2017-06-28T00:27:07.649Z,8.73
2017-06-28T00:29:34.318Z,8.15
2017-06-28T00:32:00.981Z,7.85
2017-06-28T00:34:27.657Z,8.18
2017-06-28T00:36:54.333Z,7.78
2017-06-28T00:39:20.993Z,7.85
2017-06-28T00:41:47.790Z,7.72
2017-06-28T00:44:14.459Z,8.25
2017-06-28T00:46:41.125Z,8.05
2017-06-28T00:49:07.788Z,7.87
2017-06-28T00:51:34.453Z,7.35
2017-06-28T00:54:01.117Z,8.25
2017-06-28T00:56:27.786Z,7.15
2017-06-28T00:58:54.453Z,7.60
2017-06-28T01:01:21.125Z,8.23
2017-06-28T01:03:47.797Z,7.90
2017-06-28T01:06:14.473Z,7.15
2017-06-28T01:08:41.161Z,7.20
2017-06-28T01:11:07.820Z,8.13
2017-06-28T01:13:34.505Z,7.30
2017-06-28T01:16:01.173Z,7.65
2017-06-28T01:18:27.864Z,7.82
2017-06-28T01:20:54.530Z,7.45
2017-06-28T01:23:21.196Z,7.95
2017-06-28T01:25:47.873Z,8.18
2017-06-28T01:28:14.547Z,8.40
2017-06-28T01:30:41.216Z,7.68
2017-06-28T01:33:07.885Z,8.35
2017-06-28T01:35:34.548Z,7.20
2017-06-28T01:38:01.212Z,8.02
2017-06-28T01:40:27.872Z,7.75
2017-06-28T01:42:54.536Z,8.15
2017-06-28T01:45:21.227Z,7.50
2017-06-28T01:47:47.897Z,8.57
2017-06-28T01:50:14.588Z,8.07
2017-06-28T01:52:41.253Z,7.97
2017-06-28T01:55:07.947Z,7.57
2017-06-28T01:57:34.604Z,7.30
2017-06-28T02:00:01.302Z,7.90
2017-06-28T02:02:27.964Z,7.40
2017-06-28T02:04:54.660Z,7.25
2017-06-28T02:07:21.324Z,7.72
2017-06-28T02:09:48.016Z,7.80
2017-06-28T02:12:14.684Z,7.75
2017-06-28T02:14:41.376Z,7.72
2017-06-28T02:17:08.035Z,8.13
2017-06-28T02:19:34.728Z,7.70
2017-06-28T02:22:01.389Z,7.65
2017-06-28T02:24:28.086Z,8.25
2017-06-28T02:26:54.753Z,7.60
2017-06-28T02:29:21.445Z,6.97
2017-06-28T02:31:48.116Z,7.85
2017-06-28T02:34:14.801Z,7.57
2017-06-28T02:36:41.472Z,8.65
2017-06-28T02:39:08.171Z,7.78
2017-06-28T02:41:34.836Z,7.60
2017-06-28T02:44:01.542Z,8.00
2017-06-28T02:46:28.211Z,7.75
2017-06-28T02:48:54.880Z,7.28
2017-06-28T02:51:21.564Z,8.25
2017-06-28T02:53:48.256Z,8.13
2017-06-28T02:56:14.924Z,8.80
2017-06-28T02:58:41.592Z,8.35
2017-06-28T03:01:08.256Z,8.48
2017-06-28T03:03:34.916Z,8.25
2017-06-28T03:06:01.585Z,8.93
2017-06-28T03:08:28.260Z,8.40
2017-06-28T03:10:54.956Z,8.15
2017-06-28T03:13:21.630Z,8.55
2017-06-28T03:15:48.318Z,8.18
2017-06-28T03:18:14.981Z,8.27
2017-06-28T03:20:41.672Z,8.15
2017-06-28T03:23:08.345Z,8.05
2017-06-28T03:25:35.056Z,7.97
2017-06-28T03:28:01.733Z,8.63
2017-06-28T03:30:28.434Z,8.90
2017-06-28T03:32:55.103Z,9.15
2017-06-28T03:35:21.797Z,8.70
2017-06-28T03:37:48.472Z,8.35
2017-06-28T03:40:15.161Z,8.68
2017-06-28T03:42:41.828Z,8.40
2017-06-28T03:45:08.517Z,8.23
2017-06-28T03:47:35.188Z,8.80
2017-06-28T03:50:01.881Z,8.43
2017-06-28T03:52:28.557Z,8.70
2017-06-28T03:54:55.249Z,9.13
2017-06-28T03:57:21.918Z,8.52
2017-06-28T03:59:48.612Z,8.27
2017-06-28T04:02:15.293Z,8.15
2017-06-28T04:04:41.990Z,8.75
2017-06-28T04:07:08.657Z,7.60
2017-06-28T04:09:35.349Z,7.95
2017-06-28T04:12:02.011Z,8.60
2017-06-28T04:14:28.683Z,8.27
2017-06-28T04:16:55.353Z,8.43
2017-06-28T04:19:22.023Z,8.25
2017-06-28T04:21:48.690Z,8.43
2017-06-28T04:24:15.348Z,8.25
2017-06-28T04:26:42.020Z,8.98
2017-06-28T04:29:08.732Z,8.77
2017-06-28T04:31:35.406Z,7.87
2017-06-28T04:34:02.076Z,8.25
2017-06-28T04:36:28.741Z,8.32
2017-06-28T04:38:55.414Z,8.55
2017-06-28T04:41:22.079Z,9.40
2017-06-28T04:43:48.749Z,8.45
2017-06-28T04:46:15.413Z,8.82
2017-06-28T04:48:42.192Z,8.90
2017-06-28T04:51:08.856Z,8.45
2017-06-28T04:53:35.517Z,8.90
2017-06-28T04:56:02.185Z,8.60
2017-06-28T04:58:28.850Z,8.85
2017-06-28T05:00:55.512Z,7.82
2017-06-28T05:03:22.172Z,8.65
2017-06-28T05:05:48.861Z,8.30
2017-06-28T05:08:15.528Z,8.43
2017-06-28T05:10:42.222Z,9.20
2017-06-28T05:13:08.903Z,8.80
2017-06-28T05:15:35.589Z,8.68
2017-06-28T05:18:02.252Z,8.25
2017-06-28T05:20:28.957Z,8.20
2017-06-28T05:22:55.636Z,9.43
2017-06-28T05:25:22.332Z,9.30
2017-06-28T05:27:49.002Z,9.43
2017-06-28T05:30:15.695Z,8.80
2017-06-28T05:32:42.366Z,8.25
2017-06-28T05:35:09.029Z,8.30
2017-06-28T05:37:35.717Z,8.43
2017-06-28T05:40:02.394Z,8.38
2017-06-28T05:42:29.072Z,9.20
2017-06-28T05:44:55.742Z,8.82
2017-06-28T05:47:22.437Z,7.65
2017-06-28T05:49:49.111Z,8.20
2017-06-28T05:52:15.780Z,8.83
2017-06-28T05:54:42.457Z,9.07
2017-06-28T05:57:09.133Z,9.07
2017-06-28T05:59:35.808Z,8.43
2017-06-28T06:02:02.481Z,9.20
2017-06-28T06:04:29.153Z,8.88
2017-06-28T06:06:55.837Z,8.02
2017-06-28T06:09:22.512Z,8.27
2017-06-28T06:11:49.192Z,8.25
2017-06-28T06:14:15.864Z,8.27
2017-06-28T06:16:42.541Z,8.63
2017-06-28T06:19:09.214Z,9.20
2017-06-28T06:21:35.878Z,8.27
2017-06-28T06:24:02.555Z,8.80
2017-06-28T06:26:29.218Z,8.80
2017-06-28T06:28:55.883Z,7.83
2017-06-28T06:31:22.564Z,8.50
2017-06-28T06:33:49.223Z,8.73
2017-06-28T06:36:15.894Z,9.00
2017-06-28T06:38:42.557Z,8.90
2017-06-28T06:41:09.227Z,9.20
2017-06-28T06:43:35.897Z,9.47
2017-06-28T06:46:02.563Z,9.20
2017-06-28T06:48:29.233Z,10.53
2017-06-28T06:50:55.905Z,9.17
2017-06-28T06:53:22.567Z,8.60
2017-06-28T06:55:49.257Z,8.90
2017-06-28T06:58:15.923Z,8.70
2017-06-28T07:00:42.612Z,8.57
2017-06-28T07:03:09.277Z,8.97
2017-06-28T07:05:35.945Z,10.00
2017-06-28T07:08:02.612Z,11.67
2017-06-28T07:10:29.320Z,11.30
2017-06-28T07:12:55.989Z,10.90
2017-06-28T07:15:22.661Z,10.70
2017-06-28T07:17:49.328Z,10.63
2017-06-28T07:20:16.000Z,10.10
2017-06-28T07:22:42.674Z,10.07
2017-06-28T07:25:09.345Z,9.17
2017-06-28T07:27:36.032Z,8.93
2017-06-28T07:30:02.701Z,8.90
2017-06-28T07:32:29.399Z,9.30
2017-06-28T07:34:56.076Z,9.10
2017-06-28T07:37:22.764Z,10.80
2017-06-28T07:39:49.440Z,9.53
2017-06-28T07:42:16.140Z,9.10
2017-06-28T07:44:42.803Z,9.37
2017-06-28T07:47:09.515Z,9.40
2017-06-28T07:49:36.190Z,9.00
2017-06-28T07:52:02.888Z,10.00
2017-06-28T07:54:29.563Z,9.03
2017-06-28T07:56:56.260Z,9.10
2017-06-28T07:59:22.932Z,8.60
2017-06-28T08:01:49.648Z,8.23
2017-06-28T08:04:17.050Z,9.13
2017-06-28T08:06:43.736Z,8.80
2017-06-28T08:09:10.402Z,8.93
2017-06-28T08:11:37.096Z,8.73
2017-06-28T08:14:03.761Z,8.10
2017-06-28T08:16:30.452Z,8.90
2017-06-28T08:18:57.120Z,8.47
2017-06-28T08:21:23.799Z,8.07
2017-06-28T08:23:50.470Z,9.00
2017-06-28T08:26:17.876Z,8.13
2017-06-28T08:28:44.552Z,7.57
2017-06-28T08:31:11.231Z,7.97
2017-06-28T08:33:37.902Z,8.87
2017-06-28T08:36:04.567Z,8.60
2017-06-28T08:38:31.276Z,8.80
2017-06-28T08:40:57.944Z,9.40
2017-06-28T08:43:24.641Z,8.50
2017-06-28T08:45:51.311Z,8.77
2017-06-28T08:48:18.009Z,9.10
2017-06-28T08:50:44.676Z,9.17
2017-06-28T08:53:11.363Z,8.57
2017-06-28T08:55:38.665Z,8.77
2017-06-28T08:58:05.355Z,7.83
2017-06-28T09:00:32.020Z,8.40
2017-06-28T09:02:58.708Z,8.03
2017-06-28T09:05:25.381Z,9.10
2017-06-28T09:07:52.082Z,9.07
2017-06-28T09:10:18.741Z,8.40
2017-06-28T09:12:45.433Z,9.13
2017-06-28T09:15:12.112Z,9.57
2017-06-28T09:17:38.807Z,10.00
2017-06-28T09:20:05.472Z,9.03
2017-06-28T09:22:32.172Z,9.37
2017-06-28T09:24:58.840Z,9.70
2017-06-28T09:27:25.533Z,9.93
2017-06-28T09:29:52.204Z,10.00
2017-06-28T09:32:18.897Z,10.20
2017-06-28T09:34:45.565Z,9.33
2017-06-28T09:37:12.269Z,11.17
2017-06-28T09:39:38.948Z,10.57
2017-06-28T09:42:05.641Z,11.10
2017-06-28T09:44:32.316Z,11.93
2017-06-28T09:46:58.984Z,11.07
2017-06-28T09:49:25.656Z,11.93
2017-06-28T09:51:52.333Z,12.27
2017-06-28T09:54:19.004Z,12.43
2017-06-28T09:56:48.484Z,12.73
2017-06-28T09:59:15.172Z,13.50
2017-06-28T10:01:41.848Z,13.50
2017-06-28T10:04:08.517Z,13.20
2017-06-28T10:06:35.192Z,12.93
2017-06-28T10:09:01.860Z,13.13
2017-06-28T10:11:28.531Z,12.90
2017-06-28T10:13:55.201Z,13.77
2017-06-28T10:16:21.872Z,14.40
2017-06-28T10:18:48.577Z,14.20
2017-06-28T10:21:15.273Z,14.40
2017-06-28T10:23:42.148Z,14.90
2017-06-28T10:26:08.824Z,14.37
2017-06-28T10:28:35.516Z,14.00
2017-06-28T10:31:02.197Z,15.90
2017-06-28T10:33:28.891Z,17.13
2017-06-28T10:35:55.562Z,17.23
2017-06-28T10:38:22.264Z,18.00
2017-06-28T10:40:48.936Z,18.07
2017-06-28T10:43:15.632Z,17.90
2017-06-28T10:45:42.299Z,18.07
2017-06-28T10:48:08.992Z,17.93
2017-06-28T10:50:35.675Z,18.33
2017-06-28T10:53:02.369Z,17.23
2017-06-28T10:55:29.039Z,17.90
2017-06-28T10:57:55.753Z,18.77
2017-06-28T11:00:22.445Z,19.25
2017-06-28T11:02:49.155Z,17.95
2017-06-28T11:05:15.835Z,18.90
2017-06-28T11:07:42.536Z,19.70
2017-06-28T11:10:09.224Z,19.02
2017-06-28T11:12:35.900Z,20.60
2017-06-28T11:15:02.580Z,21.83
2017-06-28T11:17:29.260Z,23.52
2017-06-28T11:19:55.944Z,25.65
2017-06-28T11:22:22.623Z,26.98
2017-06-28T11:24:49.311Z,28.67
2017-06-28T11:27:15.987Z,30.40
2017-06-28T11:29:42.672Z,29.67
2017-06-28T11:32:09.354Z,30.12
2017-06-28T11:34:36.025Z,29.20
2017-06-28T11:37:02.695Z,29.67
2017-06-28T11:39:29.368Z,30.88
2017-06-28T11:41:56.052Z,29.67
2017-06-28T11:44:22.734Z,33.17
2017-06-28T11:46:49.413Z,31.35
2017-06-28T11:49:16.085Z,32.17
2017-06-28T11:51:42.785Z,34.20
2017-06-28T11:54:09.460Z,34.42
2017-06-28T11:56:36.132Z,34.45
2017-06-28T11:59:02.813Z,33.10
2017-06-28T12:01:29.488Z,37.15
2017-06-28T12:03:56.167Z,35.15
2017-06-28T12:06:22.843Z,35.25
2017-06-28T12:08:49.537Z,35.15
2017-06-28T12:11:16.215Z,34.03
2017-06-28T12:13:42.921Z,36.92
2017-06-28T12:16:09.604Z,35.10
2017-06-28T12:18:36.305Z,30.37
2017-06-28T12:21:03.896Z,28.40
2017-06-28T12:23:30.603Z,28.90
2017-06-28T12:25:57.283Z,30.10
2017-06-28T12:28:23.988Z,29.05
2017-06-28T12:30:50.673Z,28.30
2017-06-28T12:33:17.355Z,31.05
2017-06-28T12:35:44.052Z,30.35
2017-06-28T12:38:10.751Z,32.75
2017-06-28T12:40:37.424Z,30.05
2017-06-28T12:43:04.096Z,29.87
2017-06-28T12:45:30.960Z,30.45
2017-06-28T12:47:57.669Z,31.05
2017-06-28T12:50:24.345Z,29.40
2017-06-28T12:52:51.024Z,26.33
2017-06-28T12:55:17.711Z,27.42
2017-06-28T12:57:44.386Z,25.73
2017-06-28T13:00:11.069Z,23.98
2017-06-28T13:02:37.759Z,25.90
2017-06-28T13:05:04.433Z,26.90
2017-06-28T13:07:31.196Z,25.50
2017-06-28T13:09:57.883Z,27.40
2017-06-28T13:12:24.555Z,25.98
2017-06-28T13:14:51.265Z,22.80
2017-06-28T13:17:17.940Z,25.17
2017-06-28T13:19:44.999Z,24.55
2017-06-28T13:22:11.682Z,25.75
2017-06-28T13:24:38.373Z,25.65
2017-06-28T13:27:05.053Z,22.90
2017-06-28T13:29:31.728Z,22.00
2017-06-28T13:31:58.407Z,21.15
2017-06-28T13:34:25.088Z,21.37
2017-06-28T13:36:51.760Z,21.23
2017-06-28T13:39:18.432Z,18.10
2017-06-28T13:41:45.104Z,19.90
2017-06-28T13:44:11.783Z,17.90
2017-06-28T13:46:38.478Z,16.20
2017-06-28T13:49:05.176Z,16.43
2017-06-28T13:51:31.848Z,16.07
2017-06-28T13:53:58.516Z,16.00
2017-06-28T13:56:25.185Z,16.20
2017-06-28T13:58:51.859Z,17.50
2017-06-28T14:01:21.385Z,16.90
2017-06-28T14:03:48.059Z,17.30
2017-06-28T14:06:14.757Z,17.47
2017-06-28T14:08:41.451Z,16.73
2017-06-28T14:11:08.143Z,18.40
2017-06-28T14:13:34.817Z,16.80
2017-06-28T14:16:01.512Z,16.70
2017-06-28T14:18:28.196Z,16.93
2017-06-28T14:20:54.898Z,16.47
2017-06-28T14:23:21.576Z,15.53
2017-06-28T14:25:48.277Z,15.07
2017-06-28T14:28:14.948Z,15.07
2017-06-28T14:30:41.644Z,14.83
2017-06-28T14:33:08.315Z,15.50
2017-06-28T14:35:35.016Z,15.07
2017-06-28T14:38:01.691Z,14.03
2017-06-28T14:40:28.389Z,14.97
2017-06-28T14:42:55.061Z,15.93
2017-06-28T14:45:22.581Z,15.70
2017-06-28T14:47:49.254Z,16.17
2017-06-28T14:50:15.960Z,13.83
2017-06-28T14:52:42.636Z,15.90
2017-06-28T14:55:09.340Z,15.10
2017-06-28T14:57:36.012Z,16.23
2017-06-28T15:00:02.708Z,14.37
2017-06-28T15:02:29.385Z,13.40
2017-06-28T15:04:56.089Z,14.40
2017-06-28T15:07:22.760Z,14.63
2017-06-28T15:09:49.457Z,16.43
2017-06-28T15:12:16.376Z,14.60
2017-06-28T15:14:43.077Z,16.80
2017-06-28T15:17:09.755Z,14.70
2017-06-28T15:19:36.456Z,14.87
2017-06-28T15:22:03.129Z,16.87
2017-06-28T15:24:29.819Z,19.80
2017-06-28T15:26:56.491Z,16.83
2017-06-28T15:29:23.169Z,19.20
2017-06-28T15:31:49.839Z,16.00
2017-06-28T15:34:16.510Z,17.40
2017-06-28T15:36:43.195Z,19.60
2017-06-28T15:39:09.868Z,19.17
2017-06-28T15:41:36.539Z,18.93
2017-06-28T15:44:03.432Z,21.93
2017-06-28T15:46:30.128Z,15.23
2017-06-28T15:48:56.800Z,14.63
2017-06-28T15:51:23.496Z,14.67
2017-06-28T15:53:56.169Z,14.33
2017-06-28T15:56:28.684Z,15.10
2017-06-28T15:58:55.354Z,14.30
2017-06-28T16:01:22.052Z,13.00
2017-06-28T16:03:48.728Z,13.57
2017-06-28T16:06:15.445Z,13.23
2017-06-28T16:08:42.129Z,13.20
2017-06-28T16:11:08.837Z,13.17
2017-06-28T16:13:35.592Z,13.47
2017-06-28T16:16:02.309Z,13.87
2017-06-28T16:18:28.994Z,13.70
2017-06-28T16:20:55.744Z,14.20
2017-06-28T16:23:22.420Z,14.60
2017-06-28T16:25:49.116Z,15.20
2017-06-28T16:28:15.793Z,14.73
2017-06-28T16:30:42.492Z,13.73
2017-06-28T16:33:09.169Z,14.23
2017-06-28T16:35:35.863Z,13.67
2017-06-28T16:38:02.535Z,12.70
2017-06-28T16:40:29.236Z,11.97
2017-06-28T16:42:55.909Z,11.90
2017-06-28T16:45:22.610Z,12.20
2017-06-28T16:47:49.283Z,10.60
2017-06-28T16:50:15.982Z,12.47
2017-06-28T16:52:42.663Z,11.40
2017-06-28T16:55:09.333Z,10.80
2017-06-28T16:57:35.999Z,10.20
2017-06-28T17:00:02.662Z,8.60
2017-06-28T17:02:29.327Z,9.53
2017-06-28T17:04:55.996Z,10.60
2017-06-28T17:07:22.666Z,9.53
2017-06-28T17:09:49.327Z,7.87
2017-06-28T17:12:15.988Z,8.50
2017-06-28T17:14:42.652Z,8.77
2017-06-28T17:17:09.321Z,8.30
2017-06-28T17:19:35.984Z,8.03
2017-06-28T17:22:02.654Z,8.10
2017-06-28T17:24:29.312Z,8.30
2017-06-28T17:26:55.976Z,7.87
2017-06-28T17:29:22.648Z,8.47
2017-06-28T17:31:49.416Z,7.93
2017-06-28T17:34:16.075Z,8.83
2017-06-28T17:36:42.840Z,7.70
2017-06-28T17:39:09.510Z,8.27
2017-06-28T17:41:36.199Z,7.80
2017-06-28T17:44:02.868Z,7.90
2017-06-28T17:46:29.556Z,7.57
2017-06-28T17:48:56.225Z,7.57
2017-06-28T17:51:22.924Z,7.27
2017-06-28T17:53:49.584Z,6.93
2017-06-28T17:56:16.274Z,6.70
2017-06-28T17:58:43.028Z,6.30
2017-06-28T18:01:09.716Z,6.67
2017-06-28T18:03:36.379Z,6.10
2017-06-28T18:06:03.065Z,6.60
2017-06-28T18:08:29.735Z,6.77
2017-06-28T18:10:56.446Z,6.10
2017-06-28T18:13:23.109Z,6.13
2017-06-28T18:15:49.772Z,6.80
2017-06-28T18:18:16.455Z,6.12
2017-06-28T18:20:43.132Z,5.95
2017-06-28T18:23:09.813Z,6.07
2017-06-28T18:25:36.477Z,6.20
2017-06-28T18:28:03.153Z,6.05
2017-06-28T18:30:29.830Z,6.03
2017-06-28T18:32:56.516Z,6.10
2017-06-28T18:35:23.724Z,6.10
2017-06-28T18:37:52.347Z,6.22
2017-06-28T18:40:19.023Z,6.50
2017-06-28T18:42:45.765Z,7.30
2017-06-28T18:45:12.435Z,6.35
2017-06-28T18:47:39.119Z,6.93
2017-06-28T18:50:05.799Z,7.60
2017-06-28T18:52:32.517Z,6.78
2017-06-28T18:54:59.196Z,6.90
2017-06-28T18:57:25.874Z,6.95
2017-06-28T18:59:52.635Z,6.22
2017-06-28T19:02:19.304Z,5.37
2017-06-28T19:04:45.991Z,5.78
2017-06-28T19:07:12.665Z,4.50
2017-06-28T19:09:39.335Z,4.60
2017-06-28T19:12:06.004Z,4.18
2017-06-28T19:14:32.691Z,5.00
2017-06-28T19:16:59.365Z,3.70
2017-06-28T19:19:26.033Z,3.80
2017-06-28T19:21:52.700Z,3.40
2017-06-28T19:24:19.372Z,3.35
2017-06-28T19:26:46.079Z,4.12
2017-06-28T19:29:12.739Z,3.75
2017-06-28T19:31:39.433Z,4.40
2017-06-28T19:34:06.121Z,4.50
2017-06-28T19:36:32.814Z,4.30
2017-06-28T19:38:59.521Z,4.35
2017-06-28T19:41:26.228Z,4.47
2017-06-28T19:43:52.935Z,5.00
2017-06-28T19:46:19.600Z,4.72
2017-06-28T19:48:46.278Z,6.37
2017-06-28T19:51:12.940Z,5.93
2017-06-28T19:53:39.638Z,6.20
2017-06-28T19:56:06.308Z,6.00
2017-06-28T19:58:32.976Z,6.40
2017-06-28T20:00:59.686Z,6.00
2017-06-28T20:03:26.422Z,6.25
2017-06-28T20:05:54.528Z,6.32
2017-06-28T20:08:21.194Z,6.25
2017-06-28T20:10:47.863Z,7.03
2017-06-28T20:13:14.532Z,6.22
2017-06-28T20:15:41.201Z,6.70
2017-06-28T20:18:07.871Z,6.53
2017-06-28T20:20:34.540Z,6.05
2017-06-28T20:23:01.278Z,6.15
2017-06-28T20:25:27.936Z,6.85
2017-06-28T20:27:54.604Z,6.28
2017-06-28T20:30:21.272Z,7.07
2017-06-28T20:32:47.940Z,6.47
2017-06-28T20:35:14.608Z,6.90
2017-06-28T20:37:41.275Z,5.60
2017-06-28T20:40:07.955Z,5.65
2017-06-28T20:42:34.625Z,5.90
2017-06-28T20:45:01.303Z,6.18
2017-06-28T20:47:27.977Z,6.22
2017-06-28T20:49:54.650Z,6.10
2017-06-28T20:52:21.316Z,6.62
2017-06-28T20:54:47.989Z,6.20
2017-06-28T20:57:14.675Z,7.85
2017-06-28T20:59:41.347Z,9.20
2017-06-28T21:02:08.048Z,7.68
2017-06-28T21:04:34.718Z,7.12
2017-06-28T21:07:01.420Z,10.32
2017-06-28T21:09:28.100Z,10.63
2017-06-28T21:11:54.770Z,8.77
2017-06-28T21:14:21.472Z,10.43
2017-06-28T21:16:48.144Z,9.30
2017-06-28T21:19:14.841Z,8.95
2017-06-28T21:21:41.511Z,9.23
2017-06-28T21:24:08.201Z,9.50
2017-06-28T21:26:34.873Z,20.95
2017-06-28T21:29:01.568Z,12.57
2017-06-28T21:31:28.253Z,9.35
2017-06-28T21:33:54.948Z,10.10
2017-06-28T21:36:21.611Z,9.90
2017-06-28T21:38:48.305Z,10.57
2017-06-28T21:41:14.973Z,10.52
2017-06-28T21:43:41.672Z,11.68
2017-06-28T21:46:08.366Z,10.70
2017-06-28T21:48:35.070Z,10.10
2017-06-28T21:51:01.750Z,12.25
2017-06-28T21:53:28.451Z,11.80
2017-06-28T21:55:55.130Z,12.15
2017-06-28T21:58:21.832Z,12.20
2017-06-28T22:00:48.512Z,10.52
2017-06-28T22:03:15.209Z,12.75
2017-06-28T22:05:41.886Z,11.25
2017-06-28T22:08:08.580Z,12.68
2017-06-28T22:10:35.256Z,14.15
2017-06-28T22:13:01.963Z,12.05
2017-06-28T22:15:28.641Z,14.55
2017-06-28T22:17:55.339Z,14.70
2017-06-28T22:20:27.969Z,11.15
2017-06-28T22:22:54.668Z,11.57
2017-06-28T22:25:21.348Z,12.90
2017-06-28T22:27:48.048Z,13.32
2017-06-28T22:30:14.725Z,12.65
2017-06-28T22:32:41.427Z,14.10
2017-06-28T22:35:08.098Z,16.17
2017-06-28T22:37:34.775Z,16.80
2017-06-28T22:40:01.450Z,16.20
2017-06-28T22:42:28.124Z,15.90
2017-06-28T22:44:54.817Z,15.48
2017-06-28T22:47:21.496Z,16.95
2017-06-28T22:49:48.166Z,15.45
2017-06-28T22:52:14.851Z,15.70
2017-06-28T22:54:41.524Z,17.25
2017-06-28T22:57:08.192Z,15.75
2017-06-28T22:59:34.863Z,16.23
2017-06-28T23:02:01.542Z,15.60
2017-06-28T23:04:28.216Z,15.10
2017-06-28T23:06:54.888Z,16.55
2017-06-28T23:09:21.568Z,16.58
2017-06-28T23:11:48.255Z,18.42
2017-06-28T23:14:14.930Z,15.60
2017-06-28T23:16:41.608Z,15.63
2017-06-28T23:19:08.321Z,15.85
2017-06-28T23:21:35.003Z,17.20
2017-06-28T23:24:01.684Z,16.83
2017-06-28T23:26:28.376Z,16.30
2017-06-28T23:28:55.051Z,16.00
2017-06-28T23:31:21.774Z,16.15
2017-06-28T23:33:48.447Z,16.52
2017-06-28T23:36:15.124Z,17.58
2017-06-28T23:38:41.824Z,17.85
2017-06-28T23:41:08.500Z,20.40
2017-06-28T23:43:35.479Z,21.90
2017-06-28T23:46:02.156Z,21.48
2017-06-28T23:48:28.861Z,20.45
2017-06-28T23:50:55.540Z,21.35
2017-06-28T23:53:22.242Z,21.10
2017-06-28T23:55:48.918Z,20.58
2017-06-28T23:58:15.624Z,19.12
